Hovedside
METAR-TAF:

METAR-TAF

Lufthavner :

Jönköping, Sverige

Jönköping lufthavn

breddegrad: 57-46N, lengdegrad: 014-05E, høyde over havet: 226 m

Gjeldene værobservasjon

Denne rapporten ble laget for 17 minutter siden, klokken 22:20 UTC
Vind 2 kt fra skiftende retning
Temperatur 9°C
Luftfuktighet 93%
Trykk 1013 hPa
Sikt 10 km eller mer
ingen skyer under 1500 m og ingen bygeskyer

METAR: ESGJ 242220Z VRB02KT CAVOK 09/08 Q1013

Tid: 00:37 (22:37 UTC)

Varsel

Denne rapporten ble laget for 2 timer og 7 minutter siden, klokken 20:30 UTC
Varsel gyldig fra 24. klokken 21 UTC til 25. klokken 02 UTC
Vind 6 kt fra Nord-nordøst
Sikt 10 km eller mer
ingen skyer under 1500 m og ingen bygeskyer

TAF: ESGJ 242030Z 2421/2502 03006KT CAVOK

Værobservasjoner og værvarsel for over 4000 flyplasser (METAR- og TAF-rapporter).

Tilgjengelige stasjoner er representert av de røde og gule prikkene på kartet.

Hold musepekeren over prikken for å se navnet på stasjonen.

Klikk så for å se værobservasjoner og -varsler.

For å forandre kartet kan du klikke på den grønne knappen med svart kryss for å zoome inn, på den grønne knappen med strek for å zoome ut, eller på de grønne pilene for å se tilstøtende kart.


METAR-TAF: